Portada
METAR-TAF:

METAR-TAF

Aeropuertos :

Lubbock, Texas, Estados Unidos

latitud: 33-40-03N, longitud: 101-49-17W, altitud: 1000 m

Observación

El informe se hizo hace 42 minutos, a las 14:53 UTC
Viento 17 kt del sur
Temperatura 15°C
Humedad 55%
Presión 1012 hPa
Visibilidad: 16.1 km
Cielo nuboso a una altura de 15000 ft

METAR: KLBB 011453Z 18017KT 10SM BKN150 15/06 A2989 RMK AO2 SLP093 T01500056 51004

Hora: 10:35 (15:35 UTC)

Pronóstico

El informe se hizo hace 4 horas y 15 minutos, a las 11:20 UTC
Pronóstico válido del 01 a las 12 UTC al 02 a las 12 UTC
Viento 11 kt del sur
Visibilidad: 10 km
Cielo cubierto a una altura de 20000 ft
A partir de las 01 a las 1600 UTC
Viento 19 kt del sur-suroeste
Visibilidad: 10 km
Nubes dispersas a una altura de 10000 ft
Cielo cubierto a una altura de 20000 ft

TAF: KLBB 011120Z 0112/0212 19011KT P6SM OVC200 FM011600 20019KT P6SM SCT100 OVC200

Observaciones y pronósticos meteorológicos de más de 4000 aeropuertos (mensajes METAR y TAF).

Los puntos amarillos y rojos representan las estaciones disponibles.

Ponga el ratón en el punto deseado para ver el nombre de la estación.

Haga clic para ver las observaciones y los pronósticos meteorológicos.

Para cambiar el mapa : haga clic en los botones verdes con una cruz de color negro para hacer un zoom, en el botón verde con un guión para alejar o en las flechas verdes para mapas adyacentes.


METAR-TAF: